createdAt,value
2022-10-21T00:23:47.461Z,44.79
2022-10-21T00:24:47.358Z,44.96
2022-10-21T00:25:47.260Z,44.96
2022-10-21T02:03:23.296Z,44.79
2022-10-21T02:04:24.483Z,44.79
2022-10-21T02:05:24.507Z,44.63
2022-10-21T02:06:24.508Z,45.12
2022-10-21T02:07:24.593Z,45.12
2022-10-21T02:08:26.188Z,44.63
2022-10-21T02:09:24.539Z,44.96
2022-10-21T02:10:24.449Z,44.96
2022-10-21T02:11:24.470Z,44.79
2022-10-21T02:14:42.977Z,44.79
2022-10-21T02:15:44.197Z,45.12
2022-10-21T02:16:44.227Z,45.12
2022-10-21T02:17:44.157Z,45.12
2022-10-21T02:18:45.040Z,45.28
2022-10-21T02:19:44.989Z,44.79
2022-10-21T02:20:44.214Z,44.63
2022-10-21T02:24:03.123Z,44.79
2022-10-21T02:25:04.277Z,44.63
2022-10-21T02:26:04.238Z,44.79
2022-10-21T02:27:04.253Z,44.47
2022-10-21T02:28:04.235Z,44.79
2022-10-21T02:29:04.301Z,46.25
2022-10-21T02:30:04.261Z,44.96
2022-10-21T02:31:04.212Z,46.08
2022-10-21T02:32:04.228Z,48.02
2022-10-21T02:33:04.203Z,44.63
2022-10-21T02:34:04.213Z,44.63
2022-10-21T02:35:04.249Z,44.79
2022-10-21T02:36:04.257Z,44.63
2022-10-21T02:37:04.216Z,44.47
2022-10-21T02:38:04.176Z,44.63
2022-10-21T02:39:04.177Z,44.96
2022-10-21T02:40:10.885Z,45.60
2022-10-21T02:41:04.173Z,45.44
2022-10-21T02:42:04.142Z,45.60
2022-10-21T02:43:04.154Z,44.63
2022-10-21T02:44:04.137Z,44.96
2022-10-21T02:45:04.112Z,45.44
2022-10-21T02:46:05.144Z,49.15
2022-10-21T02:47:04.171Z,45.60
2022-10-21T02:48:04.104Z,45.44
2022-10-21T02:49:04.101Z,45.12
2022-10-21T02:50:04.073Z,45.28
2022-10-21T02:51:04.074Z,45.12
2022-10-21T02:52:04.085Z,45.44
2022-10-21T02:53:04.077Z,45.60
2022-10-21T02:54:04.067Z,46.57
2022-10-21T02:55:04.051Z,45.28
2022-10-21T02:56:04.055Z,45.76
2022-10-21T02:57:04.070Z,45.76
2022-10-21T02:58:04.041Z,46.25
2022-10-21T02:59:04.035Z,46.25
2022-10-21T03:00:04.025Z,45.76
2022-10-21T03:01:04.068Z,45.92
2022-10-21T03:02:04.032Z,46.73
2022-10-21T03:03:04.005Z,45.44
2022-10-21T03:04:03.970Z,47.70
2022-10-21T03:05:04.988Z,47.53
2022-10-21T03:06:03.957Z,45.60
2022-10-21T03:07:03.989Z,46.73
2022-10-21T03:08:03.964Z,45.60
2022-10-21T03:09:03.979Z,44.96
2022-10-21T03:10:03.966Z,45.28
2022-10-21T03:11:03.962Z,45.92
2022-10-21T03:12:03.942Z,47.05
2022-10-21T03:13:03.894Z,50.27
2022-10-21T03:14:03.916Z,55.59
2022-10-21T03:15:03.956Z,44.96
2022-10-21T03:16:03.896Z,45.12
2022-10-21T03:17:03.897Z,45.44
2022-10-21T03:18:03.860Z,47.21
2022-10-21T03:19:03.880Z,51.72
2022-10-21T03:20:03.876Z,47.05
2022-10-21T03:21:03.906Z,45.28
2022-10-21T03:22:03.849Z,45.92
2022-10-21T03:23:03.835Z,46.25
2022-10-21T03:24:05.804Z,47.05
2022-10-21T03:25:05.818Z,46.41
2022-10-21T03:26:03.835Z,46.08
2022-10-21T03:27:03.786Z,47.86
2022-10-21T03:28:03.804Z,45.44
2022-10-21T03:29:03.785Z,45.12
2022-10-21T03:30:03.798Z,50.43
2022-10-21T03:31:03.835Z,50.43
2022-10-21T03:32:03.758Z,48.66
2022-10-21T03:33:03.755Z,46.73
2022-10-21T03:34:03.759Z,47.21
2022-10-21T03:35:03.728Z,51.40
2022-10-21T03:36:03.730Z,47.86
2022-10-21T03:37:03.750Z,48.34
2022-10-21T03:38:03.726Z,50.27
2022-10-21T03:39:03.712Z,49.31
2022-10-21T03:40:04.635Z,49.47
2022-10-21T03:41:03.694Z,55.59
2022-10-21T03:42:03.694Z,54.30
2022-10-21T03:43:03.685Z,51.24
2022-10-21T03:44:03.685Z,49.31
2022-10-21T03:45:03.679Z,49.15
2022-10-21T03:46:03.669Z,47.21
2022-10-21T03:47:03.660Z,45.92
2022-10-21T04:03:44.421Z,48.82
2022-10-21T04:04:44.401Z,47.70
2022-10-21T04:05:44.391Z,47.05
2022-10-21T04:06:45.500Z,50.27
2022-10-21T04:07:49.351Z,46.41
2022-10-21T04:08:47.540Z,45.28
2022-10-21T04:09:45.523Z,47.21
2022-10-21T04:10:45.568Z,51.08
2022-10-21T04:11:45.562Z,53.66
2022-10-21T04:12:45.478Z,54.79
2022-10-21T04:13:45.550Z,45.76
2022-10-21T04:14:45.477Z,46.57
2022-10-21T04:15:45.519Z,61.07
2022-10-21T04:16:47.929Z,48.02
2022-10-21T04:17:45.489Z,48.02
2022-10-21T04:18:45.459Z,51.88
2022-10-21T04:19:45.455Z,47.70
2022-10-21T04:20:45.482Z,49.47
2022-10-21T04:21:45.493Z,47.70
2022-10-21T04:22:45.445Z,51.56
2022-10-21T04:23:45.379Z,48.34
2022-10-21T04:24:45.422Z,61.39
2022-10-21T04:25:52.054Z,48.66
2022-10-21T04:26:45.425Z,52.69
2022-10-21T04:27:45.384Z,58.33
2022-10-21T04:28:45.359Z,51.24
2022-10-21T04:29:45.344Z,47.21
2022-10-21T04:30:45.344Z,63.97
2022-10-21T04:31:45.446Z,54.14
2022-10-21T04:32:45.345Z,51.40
2022-10-21T04:33:45.350Z,57.04
2022-10-21T04:34:45.307Z,52.37
2022-10-21T04:35:45.337Z,48.66
2022-10-21T04:36:45.302Z,52.37
2022-10-21T04:37:45.368Z,56.24
2022-10-21T04:38:45.313Z,62.04
2022-10-21T04:39:45.300Z,55.75
2022-10-21T04:40:45.293Z,54.79
2022-10-21T04:41:45.325Z,65.74
2022-10-21T04:42:45.358Z,55.11
2022-10-21T04:43:45.282Z,63.97
2022-10-21T04:44:45.246Z,55.27
2022-10-21T04:45:45.225Z,50.11
2022-10-21T04:46:45.231Z,52.85
2022-10-21T04:47:45.246Z,49.95
2022-10-21T04:48:45.225Z,55.43
2022-10-21T04:49:45.220Z,52.69
2022-10-21T04:50:45.203Z,53.50
2022-10-21T04:51:45.174Z,53.01
2022-10-21T04:52:45.195Z,60.10
2022-10-21T04:53:45.225Z,53.98
2022-10-21T04:54:45.168Z,50.60
2022-10-21T04:55:45.168Z,54.95
2022-10-21T04:56:45.190Z,52.85
2022-10-21T04:57:45.182Z,54.95
2022-10-21T04:58:45.165Z,57.04
2022-10-21T04:59:45.134Z,61.23
2022-10-21T05:00:45.148Z,51.08
2022-10-21T05:01:45.114Z,53.01
2022-10-21T05:02:45.087Z,50.60
2022-10-21T05:03:45.126Z,58.01
2022-10-21T05:04:45.127Z,55.11
2022-10-21T05:05:45.115Z,53.17
2022-10-21T05:06:45.112Z,54.62
2022-10-21T05:07:45.061Z,57.36
2022-10-21T05:08:45.110Z,54.95
2022-10-21T05:09:45.078Z,50.27
2022-10-21T05:10:45.053Z,60.42
2022-10-21T05:11:45.061Z,53.01
2022-10-21T05:12:45.048Z,63.65
2022-10-21T05:13:45.105Z,61.71
2022-10-21T05:14:45.029Z,61.39
2022-10-21T05:15:45.526Z,59.78
2022-10-21T05:16:45.529Z,60.26
2022-10-21T05:17:45.020Z,56.07
2022-10-21T05:18:44.958Z,57.85
2022-10-21T05:19:45.044Z,64.94
2022-10-21T05:20:44.995Z,60.59
2022-10-21T05:21:44.974Z,57.36
2022-10-21T05:22:44.958Z,63.00
2022-10-21T05:23:44.938Z,57.69
2022-10-21T05:24:44.939Z,60.10
2022-10-21T05:25:44.913Z,58.49
2022-10-21T05:26:44.931Z,59.30
2022-10-21T05:27:44.959Z,56.07
2022-10-21T05:28:44.933Z,54.95
2022-10-21T05:29:44.898Z,54.30
2022-10-21T05:30:44.895Z,64.94
2022-10-21T05:31:44.890Z,60.59
2022-10-21T05:32:44.901Z,64.61
2022-10-21T05:33:44.862Z,48.82
2022-10-21T05:34:44.843Z,60.26
2022-10-21T05:35:44.911Z,52.05
2022-10-21T05:36:44.860Z,59.14
2022-10-21T05:37:44.866Z,52.69
2022-10-21T05:38:44.810Z,52.53
2022-10-21T05:39:44.840Z,67.84
2022-10-21T05:40:44.784Z,63.00
2022-10-21T05:41:47.814Z,56.88
2022-10-21T05:42:44.801Z,59.62
2022-10-21T05:43:44.818Z,55.75
2022-10-21T05:44:44.770Z,56.56
2022-10-21T05:45:44.781Z,62.52
2022-10-21T05:46:44.780Z,50.92
2022-10-21T05:47:44.732Z,58.17
2022-10-21T05:48:44.794Z,51.72
2022-10-21T05:49:44.757Z,60.75
2022-10-21T05:50:44.735Z,62.68
2022-10-21T05:51:44.760Z,55.91
2022-10-21T05:52:44.744Z,64.29
2022-10-21T05:53:44.705Z,56.72
2022-10-21T05:54:44.700Z,63.33
2022-10-21T05:55:44.696Z,60.26
2022-10-21T05:56:44.703Z,55.11
2022-10-21T05:57:44.752Z,52.05
2022-10-21T05:58:44.666Z,52.05
2022-10-21T05:59:44.686Z,64.45
2022-10-21T06:00:44.736Z,59.30
2022-10-21T06:01:44.669Z,53.17
2022-10-21T06:02:44.632Z,60.26
2022-10-21T06:03:44.633Z,64.78
2022-10-21T06:04:44.619Z,55.91
2022-10-21T06:05:44.622Z,62.68
2022-10-21T06:06:44.635Z,49.47
2022-10-21T06:07:44.642Z,49.15
2022-10-21T06:08:44.645Z,64.29
2022-10-21T06:09:44.598Z,49.15
2022-10-21T06:10:44.567Z,50.43
2022-10-21T06:11:44.594Z,50.60
2022-10-21T06:12:44.576Z,61.39
2022-10-21T06:13:44.539Z,52.69
2022-10-21T06:14:44.557Z,52.21
2022-10-21T06:15:48.615Z,59.62
2022-10-21T06:16:46.529Z,54.95
2022-10-21T06:17:44.584Z,60.75
2022-10-21T06:18:44.548Z,53.01
2022-10-21T06:19:47.299Z,57.52
2022-10-21T06:20:45.502Z,54.14
2022-10-21T06:21:44.480Z,53.82
2022-10-21T06:22:44.570Z,49.47
2022-10-21T06:23:44.497Z,49.47
2022-10-21T06:24:44.471Z,55.11
2022-10-21T06:25:44.449Z,51.08
2022-10-21T06:26:45.495Z,50.60
2022-10-21T06:27:44.483Z,54.30
2022-10-21T06:28:44.489Z,57.20
2022-10-21T06:29:44.464Z,53.50
2022-10-21T06:30:44.409Z,49.15
2022-10-21T06:31:44.432Z,51.72
2022-10-21T06:32:44.388Z,51.08
2022-10-21T06:33:44.435Z,51.56
2022-10-21T06:34:44.408Z,48.34
2022-10-21T06:35:44.385Z,49.15
2022-10-21T06:36:44.375Z,57.36
2022-10-21T06:37:44.389Z,57.36
2022-10-21T06:38:44.338Z,52.85
2022-10-21T06:39:44.352Z,62.84
2022-10-21T06:40:44.340Z,56.56
2022-10-21T06:41:45.156Z,55.75
2022-10-21T06:42:44.336Z,50.92
2022-10-21T06:43:44.330Z,47.70
2022-10-21T06:44:44.348Z,54.95
2022-10-21T06:45:44.320Z,53.98
2022-10-21T06:46:44.273Z,59.94
2022-10-21T06:47:44.282Z,60.91
2022-10-21T06:48:44.276Z,50.27
2022-10-21T06:49:44.282Z,56.07
2022-10-21T06:50:44.277Z,56.40
2022-10-21T06:51:44.246Z,51.08
2022-10-21T06:52:44.254Z,52.69
2022-10-21T06:53:44.228Z,49.63
2022-10-21T06:54:44.268Z,51.72
2022-10-21T06:55:44.238Z,61.87
2022-10-21T06:56:44.218Z,58.81
2022-10-21T06:57:44.243Z,51.72
2022-10-21T06:58:44.202Z,54.95
2022-10-21T06:59:44.173Z,50.76
2022-10-21T07:00:45.201Z,54.46
2022-10-21T07:02:00.961Z,49.15
2022-10-21T07:02:46.186Z,48.66
2022-10-21T07:03:44.197Z,51.08
2022-10-21T07:04:44.154Z,48.02
2022-10-21T07:05:44.169Z,49.95
2022-10-21T07:06:44.161Z,52.05
2022-10-21T07:07:45.028Z,53.66
2022-10-21T07:08:47.170Z,54.79
2022-10-21T07:09:46.166Z,54.62
2022-10-21T07:10:44.116Z,57.20
2022-10-21T07:11:44.131Z,49.31
2022-10-21T07:12:44.134Z,57.20
2022-10-21T07:13:44.127Z,50.11
2022-10-21T07:14:44.150Z,57.04
2022-10-21T07:15:44.117Z,52.05
2022-10-21T07:16:44.050Z,62.20
2022-10-21T07:17:44.079Z,52.05
2022-10-21T07:18:44.038Z,52.05
2022-10-21T07:19:44.025Z,47.86
2022-10-21T07:20:44.025Z,48.66
2022-10-21T07:21:44.063Z,48.98
2022-10-21T07:22:44.022Z,56.40
2022-10-21T07:23:43.979Z,49.47
2022-10-21T07:24:44.027Z,56.72
2022-10-21T07:25:43.991Z,60.42
2022-10-21T07:26:43.982Z,53.66
2022-10-21T07:27:47.372Z,54.62
2022-10-21T07:28:43.978Z,49.95
2022-10-21T07:29:43.994Z,53.33
2022-10-21T07:30:43.944Z,59.30
2022-10-21T07:31:43.960Z,57.52
2022-10-21T07:32:43.917Z,63.81
2022-10-21T07:33:43.921Z,54.79
2022-10-21T07:34:43.947Z,57.20
2022-10-21T07:35:43.937Z,50.60
2022-10-21T07:36:43.903Z,52.85
2022-10-21T07:37:43.925Z,59.30
2022-10-21T07:38:43.905Z,56.56
2022-10-21T07:39:43.885Z,56.56
2022-10-21T07:40:43.885Z,54.62
2022-10-21T07:41:43.862Z,52.37
2022-10-21T07:42:43.863Z,51.88
2022-10-21T07:43:43.901Z,55.59
2022-10-21T07:44:43.852Z,55.59
2022-10-21T07:45:43.844Z,59.30
2022-10-21T07:46:43.818Z,50.11
2022-10-21T07:47:43.843Z,55.27
2022-10-21T07:48:43.827Z,55.27
2022-10-21T07:49:43.823Z,51.24
2022-10-21T07:50:43.797Z,58.49
2022-10-21T07:51:43.810Z,66.23
2022-10-21T07:52:49.625Z,55.27
2022-10-21T07:53:44.789Z,60.26
2022-10-21T07:54:43.795Z,59.14
2022-10-21T07:55:43.777Z,55.75
2022-10-21T07:56:43.774Z,58.97
2022-10-21T07:57:43.800Z,61.71
2022-10-21T07:58:43.754Z,53.66
2022-10-21T07:59:43.835Z,59.62
2022-10-21T08:00:43.743Z,53.33
2022-10-21T08:01:43.742Z,55.43
2022-10-21T08:02:43.746Z,58.81
2022-10-21T08:03:43.701Z,54.62
2022-10-21T08:04:43.738Z,61.23
2022-10-21T08:05:43.693Z,56.88
2022-10-21T08:06:43.696Z,49.47
2022-10-21T08:07:43.676Z,54.46
2022-10-21T08:08:43.689Z,54.62
2022-10-21T08:09:43.718Z,54.95
2022-10-21T08:10:43.678Z,48.82
2022-10-21T08:11:43.636Z,58.49
2022-10-21T08:12:43.636Z,52.85
2022-10-21T08:13:43.637Z,49.47
2022-10-21T08:14:43.627Z,54.46
2022-10-21T08:15:43.590Z,50.76
2022-10-21T08:16:43.611Z,52.53
2022-10-21T08:17:43.596Z,47.86
2022-10-21T08:18:43.580Z,56.88
2022-10-21T08:19:43.622Z,54.30
2022-10-21T08:20:43.561Z,56.56
2022-10-21T10:30:29.867Z,66.06
2022-10-21T10:32:04.147Z,52.05
2022-10-21T10:32:29.962Z,61.23
2022-10-21T10:33:30.073Z,55.27
2022-10-21T10:35:02.334Z,61.39
2022-10-21T10:35:29.834Z,54.79
2022-10-21T10:36:29.822Z,68.32
2022-10-21T10:37:30.648Z,65.58
2022-10-21T10:38:29.944Z,60.10
2022-10-21T10:39:29.905Z,67.19
2022-10-21T10:40:29.946Z,54.30
2022-10-21T10:41:29.840Z,62.20
2022-10-21T10:43:03.733Z,60.91
2022-10-21T10:43:29.791Z,51.88
2022-10-21T10:45:03.874Z,68.16
2022-10-21T10:45:29.904Z,69.77
2022-10-21T10:47:03.322Z,57.36
2022-10-21T10:47:29.704Z,71.70
2022-10-21T10:49:03.885Z,52.69
2022-10-21T10:49:29.757Z,72.19
2022-10-21T10:50:31.243Z,67.19
2022-10-21T10:51:30.490Z,56.72
2022-10-21T10:52:29.733Z,58.17
2022-10-21T10:53:29.740Z,64.61
2022-10-21T10:54:57.394Z,63.16
2022-10-21T10:55:29.744Z,62.20
2022-10-21T10:56:29.666Z,60.91
2022-10-21T10:57:39.122Z,58.81
2022-10-21T10:58:32.270Z,68.00
2022-10-21T10:59:30.308Z,66.71
2022-10-21T11:04:39.001Z,66.06
2022-10-21T11:05:40.625Z,55.75
2022-10-21T11:07:12.110Z,64.78
2022-10-21T11:07:41.412Z,65.10
2022-10-21T11:08:39.770Z,54.14
2022-10-21T11:09:40.544Z,55.91
2022-10-21T11:10:39.687Z,62.04
2022-10-21T11:11:39.661Z,56.24
2022-10-21T11:13:33.287Z,63.97
2022-10-21T11:13:42.308Z,72.83
2022-10-21T11:14:40.666Z,60.91
2022-10-21T11:18:51.878Z,64.61
2022-10-21T11:19:52.599Z,58.33
2022-10-21T11:20:52.252Z,70.09
2022-10-21T11:22:24.085Z,68.96
2022-10-21T11:22:52.805Z,63.81
2022-10-21T11:24:25.509Z,63.00
2022-10-21T11:24:52.062Z,70.42
2022-10-21T11:25:52.783Z,70.42
2022-10-21T11:26:51.862Z,68.64
2022-10-21T11:30:57.728Z,60.10
2022-10-21T11:34:49.528Z,70.25
2022-10-21T11:35:53.116Z,58.81
2022-10-21T11:36:52.602Z,58.81
2022-10-21T11:37:50.592Z,59.30
2022-10-21T11:38:50.800Z,64.45
2022-10-21T11:39:50.741Z,60.10
2022-10-21T11:41:27.161Z,68.48
2022-10-21T11:41:50.725Z,59.30
2022-10-21T11:43:23.116Z,68.96
2022-10-21T11:43:51.138Z,72.51
2022-10-21T11:44:50.512Z,61.55
2022-10-21T11:45:50.448Z,65.26
2022-10-21T11:51:07.042Z,61.07
2022-10-21T11:52:16.373Z,68.80
2022-10-21T11:53:07.042Z,55.11
2022-10-21T12:20:47.462Z,58.65
2022-10-21T12:22:21.145Z,67.84
2022-10-21T12:23:22.246Z,70.58
2022-10-21T12:27:45.454Z,63.33
2022-10-21T12:28:47.431Z,67.68
2022-10-21T12:29:46.757Z,69.13
2022-10-21T12:30:47.271Z,69.93
2022-10-21T12:31:47.528Z,71.54
2022-10-21T12:32:46.757Z,62.68
2022-10-21T12:33:46.789Z,63.16
2022-10-21T12:34:46.663Z,69.93
2022-10-21T12:35:46.685Z,66.06
2022-10-21T12:36:46.728Z,66.06
2022-10-21T12:37:47.439Z,64.29
2022-10-21T12:38:47.434Z,64.78
2022-10-21T12:39:47.825Z,70.58
2022-10-21T12:40:46.605Z,63.97
2022-10-21T12:41:46.591Z,68.64
2022-10-21T12:42:46.655Z,70.25
2022-10-21T12:43:46.524Z,68.48
2022-10-21T12:44:47.051Z,70.09
2022-10-21T12:45:46.566Z,72.67
2022-10-21T12:46:46.592Z,65.58
2022-10-21T12:47:46.565Z,67.51
2022-10-21T12:48:48.638Z,60.59
2022-10-21T12:52:45.262Z,57.20
2022-10-21T12:53:47.085Z,62.84
2022-10-21T12:54:47.597Z,68.80
2022-10-21T12:55:46.809Z,64.61
2022-10-21T12:56:47.031Z,64.78
2022-10-21T12:57:46.442Z,69.45
2022-10-21T12:58:46.566Z,66.87
2022-10-21T12:59:49.393Z,68.00
2022-10-21T13:01:20.148Z,60.75
2022-10-21T13:06:14.761Z,61.07
2022-10-21T13:07:17.090Z,65.74
2022-10-21T13:08:15.895Z,68.16
2022-10-21T13:09:15.944Z,65.58
2022-10-21T13:10:16.594Z,67.51
2022-10-21T13:11:16.595Z,63.33
2022-10-21T13:12:16.423Z,60.42
2022-10-21T13:13:17.106Z,64.94
2022-10-21T13:14:16.634Z,65.10
2022-10-21T13:15:16.263Z,66.71
2022-10-21T13:16:16.601Z,66.06
2022-10-21T13:17:16.297Z,66.55
2022-10-21T13:18:15.933Z,67.03
2022-10-21T13:19:15.785Z,70.42
2022-10-21T13:20:15.871Z,64.45
2022-10-21T13:21:18.306Z,68.80
2022-10-21T13:22:17.834Z,62.68
2022-10-21T13:23:15.768Z,67.68
2022-10-21T13:24:15.936Z,69.61
2022-10-21T13:25:16.777Z,63.49
2022-10-21T13:26:15.724Z,63.81
2022-10-21T13:27:16.602Z,67.68
2022-10-21T13:28:16.452Z,62.04
2022-10-21T13:29:16.572Z,69.45
2022-10-21T13:30:15.687Z,63.81
2022-10-21T13:31:15.592Z,51.40
2022-10-21T13:32:15.677Z,64.94
2022-10-21T13:33:15.656Z,64.61
2022-10-21T13:34:15.640Z,65.58
2022-10-21T13:35:16.101Z,63.81
2022-10-21T13:36:16.604Z,63.33
2022-10-21T13:37:15.784Z,67.51
2022-10-21T13:38:17.035Z,60.75
2022-10-21T13:39:15.674Z,52.37
2022-10-21T13:40:15.636Z,65.58
2022-10-21T13:41:16.099Z,68.00
2022-10-21T13:42:17.492Z,65.74
2022-10-21T13:43:17.084Z,68.00
2022-10-21T13:44:15.789Z,66.23
2022-10-21T13:45:15.998Z,61.39
2022-10-21T13:46:15.653Z,53.17
2022-10-21T13:47:15.971Z,68.00
2022-10-21T13:48:15.789Z,61.55
2022-10-21T13:49:15.755Z,65.58
2022-10-21T13:50:15.543Z,57.36
2022-10-21T13:51:17.105Z,67.84
2022-10-21T13:52:15.607Z,68.48
2022-10-21T13:53:15.564Z,67.03
2022-10-21T13:54:15.695Z,63.65
2022-10-21T13:55:15.479Z,61.87
2022-10-21T13:56:16.104Z,57.52
2022-10-21T13:57:16.105Z,68.16
2022-10-21T13:58:15.535Z,65.58
2022-10-21T13:59:15.417Z,62.36
2022-10-21T14:00:16.451Z,57.36
2022-10-21T14:01:15.547Z,51.24
2022-10-21T14:02:16.460Z,66.87
2022-10-21T14:03:15.420Z,67.51
2022-10-21T14:04:15.551Z,51.40
2022-10-21T14:05:15.428Z,56.07
2022-10-21T14:06:15.562Z,69.13
2022-10-21T14:07:15.443Z,70.58
2022-10-21T14:08:15.484Z,67.19
2022-10-21T14:09:16.145Z,61.55
2022-10-21T14:10:15.416Z,66.39
2022-10-21T14:11:15.770Z,57.04
2022-10-21T14:12:15.973Z,50.11
2022-10-21T14:13:15.435Z,63.33
2022-10-21T14:14:15.442Z,67.19
2022-10-21T14:15:15.301Z,60.91
2022-10-21T14:16:15.282Z,56.88
2022-10-21T14:17:16.118Z,60.91
2022-10-21T14:18:15.312Z,64.45
2022-10-21T14:19:15.330Z,60.42
2022-10-21T14:20:15.344Z,69.29
2022-10-21T14:25:20.631Z,61.71
2022-10-21T14:26:12.014Z,65.10
2022-10-21T14:27:11.991Z,57.20
2022-10-21T14:28:11.974Z,57.69
2022-10-21T14:29:13.173Z,54.95
2022-10-21T14:30:13.150Z,57.85
2022-10-21T14:31:13.118Z,62.04
2022-10-21T14:32:13.103Z,68.00
2022-10-21T14:33:13.138Z,64.29
2022-10-21T14:34:13.103Z,58.81
2022-10-21T14:35:13.114Z,67.68
2022-10-21T14:36:14.059Z,67.19
2022-10-21T14:37:13.094Z,63.49
2022-10-21T14:38:13.097Z,64.61
2022-10-21T14:39:13.083Z,65.74
2022-10-21T14:40:13.107Z,64.94
2022-10-21T14:41:13.057Z,64.94
2022-10-21T14:42:13.040Z,53.82
2022-10-21T14:43:13.044Z,61.87
2022-10-21T14:44:13.032Z,66.55
2022-10-21T14:45:12.995Z,60.26
2022-10-21T14:46:13.011Z,67.51
2022-10-21T14:47:13.010Z,64.45
2022-10-21T14:48:12.992Z,60.91
2022-10-21T14:49:13.034Z,60.42
2022-10-21T14:50:13.337Z,62.36
2022-10-21T14:51:16.366Z,67.84
2022-10-21T14:52:13.949Z,61.55
2022-10-21T14:53:12.927Z,48.50
2022-10-21T14:54:12.918Z,59.78
2022-10-21T14:55:13.792Z,62.36
2022-10-21T14:56:13.781Z,63.81
2022-10-21T14:57:12.937Z,61.39
2022-10-21T14:58:12.929Z,47.70
2022-10-21T14:59:12.914Z,56.24
2022-10-21T15:00:12.934Z,62.68
2022-10-21T15:01:12.882Z,63.65
2022-10-21T15:02:12.879Z,61.39
2022-10-21T15:03:12.937Z,51.56
2022-10-21T15:04:12.895Z,58.97
2022-10-21T15:05:12.905Z,65.90
2022-10-21T15:06:12.910Z,64.94
2022-10-21T15:07:12.962Z,50.43
2022-10-21T15:08:12.887Z,62.04
2022-10-21T15:09:12.881Z,64.13
2022-10-21T15:10:18.687Z,60.75
2022-10-21T15:11:12.820Z,64.61
2022-10-21T15:12:12.786Z,67.19
2022-10-21T15:13:12.800Z,59.62
2022-10-21T15:14:12.781Z,67.35
2022-10-21T15:15:12.771Z,63.65
2022-10-21T15:16:12.755Z,61.55
2022-10-21T15:17:12.800Z,54.62
2022-10-21T15:18:12.772Z,54.62
2022-10-21T15:19:12.789Z,67.51
2022-10-21T15:20:12.727Z,54.46
2022-10-21T15:21:12.749Z,64.61
2022-10-21T15:22:12.722Z,61.87
2022-10-21T15:23:12.859Z,61.71
2022-10-21T15:24:13.706Z,52.37
2022-10-21T15:25:12.734Z,52.69
2022-10-21T15:26:12.746Z,65.26
2022-10-21T15:27:12.681Z,55.59
2022-10-21T15:28:12.679Z,58.49
2022-10-21T15:29:12.662Z,55.27
2022-10-21T15:30:12.679Z,64.94
2022-10-21T15:31:12.660Z,55.43
2022-10-21T15:32:12.681Z,61.71
2022-10-21T15:33:12.648Z,67.51
2022-10-21T15:34:12.621Z,59.94
2022-10-21T15:35:12.618Z,62.84
2022-10-21T15:36:12.673Z,57.20
2022-10-21T15:37:12.630Z,60.75
2022-10-21T15:38:12.637Z,51.56
2022-10-21T15:39:12.584Z,47.70
2022-10-21T15:40:12.565Z,50.92
2022-10-21T15:41:12.583Z,47.70
2022-10-21T15:42:12.554Z,54.46
2022-10-21T15:43:12.624Z,60.91
2022-10-21T15:44:12.529Z,61.23
2022-10-21T15:45:13.516Z,49.47
2022-10-21T15:46:12.544Z,63.33
2022-10-21T15:47:12.570Z,63.49
2022-10-21T15:48:12.550Z,61.71
2022-10-21T15:49:12.542Z,60.26
2022-10-21T15:50:12.527Z,58.81
2022-10-21T15:51:12.507Z,56.40
2022-10-21T15:52:12.532Z,56.72
2022-10-21T15:53:12.574Z,58.49
2022-10-21T15:54:12.515Z,62.36
2022-10-21T15:55:12.463Z,54.79
2022-10-21T15:56:12.469Z,63.97
2022-10-21T15:57:12.535Z,61.39
2022-10-21T15:58:12.452Z,56.40
2022-10-21T15:59:12.481Z,61.23
2022-10-21T16:00:12.399Z,51.72
2022-10-21T16:01:12.562Z,53.50
2022-10-21T16:02:15.445Z,56.40
2022-10-21T16:03:12.427Z,60.75
2022-10-21T16:04:12.402Z,63.33
2022-10-21T16:05:12.449Z,60.42
2022-10-21T16:06:12.399Z,61.87
2022-10-21T16:07:12.358Z,52.53
2022-10-21T16:08:12.378Z,59.94
2022-10-21T16:09:14.704Z,62.36
2022-10-21T16:10:13.371Z,64.29
2022-10-21T16:12:13.345Z,53.01
2022-10-21T16:13:12.378Z,53.33
2022-10-21T16:14:12.302Z,59.30
2022-10-21T16:15:12.297Z,47.70
2022-10-21T16:16:12.315Z,52.69
2022-10-21T16:17:12.287Z,50.76
2022-10-21T16:18:12.310Z,59.14
2022-10-21T16:19:12.290Z,50.76
2022-10-21T16:20:12.276Z,63.81
2022-10-21T16:21:13.377Z,53.33
2022-10-21T16:22:12.251Z,59.62
2022-10-21T16:23:12.268Z,52.85
2022-10-21T16:24:12.256Z,57.52
2022-10-21T16:25:12.254Z,61.39
2022-10-21T16:26:12.247Z,61.71
2022-10-21T16:27:12.229Z,53.01
2022-10-21T16:28:12.254Z,58.01
2022-10-21T16:29:12.381Z,58.81
2022-10-21T16:30:12.212Z,55.59
2022-10-21T16:31:12.168Z,47.37
2022-10-21T16:32:12.168Z,57.69
2022-10-21T16:33:12.190Z,53.01
2022-10-21T16:34:12.152Z,50.43
2022-10-21T16:35:12.177Z,60.10
2022-10-21T16:36:12.638Z,55.59
2022-10-21T16:37:12.156Z,59.46
2022-10-21T16:38:12.442Z,59.62
2022-10-21T16:39:12.174Z,60.26
2022-10-21T16:40:12.101Z,60.10
2022-10-21T16:41:12.088Z,51.88
2022-10-21T16:42:12.122Z,60.75
2022-10-21T16:43:12.100Z,54.30
2022-10-21T16:44:12.190Z,46.89
2022-10-21T16:45:12.074Z,56.56
2022-10-21T16:46:12.085Z,59.14
2022-10-21T16:47:12.159Z,60.42
2022-10-21T16:48:12.058Z,56.07
2022-10-21T16:49:12.936Z,53.01
2022-10-21T16:50:13.051Z,52.21
2022-10-21T16:51:12.022Z,55.91
2022-10-21T16:52:12.035Z,60.10
2022-10-21T16:53:12.004Z,50.76
2022-10-21T16:54:11.987Z,49.47
2022-10-21T16:55:12.024Z,51.72
2022-10-21T16:56:12.019Z,48.66
2022-10-21T16:57:12.007Z,45.92
2022-10-21T16:58:11.980Z,48.66
2022-10-21T16:59:11.984Z,47.05
2022-10-21T17:00:11.954Z,54.14
2022-10-21T17:01:12.059Z,52.53
2022-10-21T17:02:11.946Z,46.57
2022-10-21T17:03:11.930Z,54.62
2022-10-21T17:04:11.939Z,46.08
2022-10-21T17:05:11.919Z,56.40
2022-10-21T17:06:12.000Z,53.33
2022-10-21T17:07:11.951Z,51.72
2022-10-21T17:08:12.648Z,51.56
2022-10-21T17:09:12.084Z,46.73
2022-10-21T17:10:11.886Z,52.37
2022-10-21T17:11:13.108Z,62.52
2022-10-21T17:12:11.913Z,49.95
2022-10-21T17:13:11.873Z,51.08
2022-10-21T17:14:11.900Z,57.52
2022-10-21T17:15:11.827Z,50.43
2022-10-21T17:16:11.833Z,48.02
2022-10-21T17:17:11.820Z,57.69
2022-10-21T17:18:15.407Z,54.46
2022-10-21T17:19:12.833Z,61.07
2022-10-21T17:20:11.800Z,47.21
2022-10-21T17:21:11.806Z,54.95
2022-10-21T17:22:11.785Z,47.70
2022-10-21T17:23:12.329Z,49.15
2022-10-21T17:24:11.770Z,48.66
2022-10-21T17:25:11.788Z,54.46
2022-10-21T17:26:11.814Z,54.46
2022-10-21T17:27:14.663Z,51.72
2022-10-21T17:28:12.812Z,54.14
2022-10-21T17:29:11.790Z,55.11
2022-10-21T17:30:11.728Z,57.04
2022-10-21T17:31:11.730Z,50.43
2022-10-21T17:32:11.754Z,48.02
2022-10-21T17:33:14.110Z,57.04
2022-10-21T17:34:11.703Z,54.62
2022-10-21T17:35:11.708Z,58.17
2022-10-21T17:36:11.658Z,46.89
2022-10-21T17:37:11.777Z,48.34
2022-10-21T17:38:11.762Z,47.70
2022-10-21T17:39:11.750Z,58.49
2022-10-21T17:40:11.700Z,55.59
2022-10-21T17:41:11.659Z,53.33
2022-10-21T17:42:11.620Z,47.37
2022-10-21T17:43:11.672Z,48.34
2022-10-21T17:44:11.718Z,46.89
2022-10-21T17:45:11.633Z,52.37
2022-10-21T17:46:13.117Z,55.91
2022-10-21T17:47:11.687Z,45.60
2022-10-21T17:48:11.655Z,47.37
2022-10-21T17:49:11.619Z,51.08
2022-10-21T17:50:13.797Z,44.31
2022-10-21T17:51:11.670Z,46.25
2022-10-21T17:52:11.567Z,48.02
2022-10-21T17:53:12.208Z,47.53
2022-10-21T17:54:11.570Z,50.60
2022-10-21T17:55:11.650Z,51.24
2022-10-21T17:56:11.570Z,48.98
2022-10-21T17:57:11.583Z,49.79
2022-10-21T17:58:11.518Z,49.95
2022-10-21T17:59:12.413Z,54.46
2022-10-21T18:00:11.538Z,50.43
2022-10-21T18:01:11.618Z,47.53
2022-10-21T18:02:11.536Z,48.82
2022-10-21T18:03:11.506Z,49.47
2022-10-21T18:04:11.463Z,52.05
2022-10-21T18:05:11.527Z,46.41
2022-10-21T18:06:11.531Z,46.25
2022-10-21T18:07:13.216Z,58.65
2022-10-21T18:08:11.517Z,47.37
2022-10-21T18:09:11.614Z,46.57
2022-10-21T18:10:11.502Z,50.60
2022-10-21T18:11:11.501Z,53.82
2022-10-21T18:12:11.470Z,46.89
2022-10-21T18:13:11.452Z,46.08
2022-10-21T18:14:11.423Z,50.60
2022-10-21T18:15:11.395Z,46.73
2022-10-21T18:16:11.415Z,46.57
2022-10-21T18:17:11.391Z,45.12
2022-10-21T18:18:11.408Z,47.86
2022-10-21T18:19:11.408Z,46.08
2022-10-21T18:20:11.459Z,45.44
2022-10-21T18:21:11.437Z,46.57
2022-10-21T18:22:11.425Z,47.70